Time;durP1;ratioP1;P1;durP2;ratioP2;P2;SDS_P1;SDS_P2;PMS_P1;PMS_P2;Temp;Humidity;BMP_temperature;BMP_pressure;BME280_temperature;BME280_humidity;BME280_pressure;Samples;Min_cycle;Max_cycle;Signal;HPM_P1;HPM_P2
2022/07/19 09:09:18;;;;;;;3.90;2.30;;;;;;;;;;799361;170;826345;-58
2022/07/19 09:11:49;;;;;;;3.93;2.17;;;;;;;;;;776074;177;920416;-58
2022/07/19 09:14:15;;;;;;;3.77;2.10;;;;;;;;;;766025;181;931757;-58
2022/07/19 09:16:46;;;;;;;5.50;2.40;;;;;;;;;;767231;181;919578;-58
2022/07/19 09:19:12;;;;;;;4.20;1.83;;;;;;;;;;780616;177;904110;-58
2022/07/19 09:21:39;;;;;;;4.10;2.50;;;;;;;;;;771637;180;911960;-58
2022/07/19 09:24:05;;;;;;;3.60;1.73;;;;;;;;;;769880;177;922739;-59
2022/07/19 09:26:31;;;;;;;5.83;2.50;;;;;;;;;;777477;180;916602;-58
2022/07/19 09:28:56;;;;;;;4.97;2.20;;;;;;;;;;773272;181;891498;-59
2022/07/19 09:31:22;;;;;;;5.80;2.07;;;;;;;;;;769501;181;912811;-59
2022/07/19 09:33:48;;;;;;;3.57;1.73;;;;;;;;;;780242;178;917629;-59
2022/07/19 09:36:14;;;;;;;7.10;1.90;;;;;;;;;;775170;179;920418;-58
2022/07/19 09:38:43;;;;;;;4.00;1.90;;;;;;;;;;777227;178;818659;-58
2022/07/19 09:41:10;;;;;;;7.87;2.13;;;;;;;;;;768492;179;816041;-59
2022/07/19 09:43:41;;;;;;;5.30;2.00;;;;;;;;;;775015;180;814048;-58
2022/07/19 09:46:07;;;;;;;5.23;2.93;;;;;;;;;;771282;180;919537;-57
2022/07/19 09:48:36;;;;;;;4.50;2.40;;;;;;;;;;766989;180;914667;-57
2022/07/19 09:51:01;;;;;;;3.60;1.93;;;;;;;;;;772897;180;917995;-58
2022/07/19 10:01:32;;;;;;;3.23;2.00;;;;;;;;;;778033;173;650548;-85
2022/07/19 10:03:59;;;;;;;4.20;2.23;;;;;;;;;;750737;186;625103;-86
2022/07/19 10:06:24;;;;;;;4.70;1.83;;;;;;;;;;751332;185;631028;-85
2022/07/19 10:08:50;;;;;;;4.60;2.00;;;;;;;;;;755383;186;629035;-88
2022/07/19 10:11:16;;;;;;;5.10;1.93;;;;;;;;;;750766;183;694535;-89
2022/07/19 10:13:42;;;;;;;5.87;2.20;;;;;;;;;;751343;186;644767;-86
2022/07/19 10:16:08;;;;;;;4.00;2.27;;;;;;;;;;755014;186;624251;-86
2022/07/19 10:18:34;;;;;;;5.73;2.10;;;;;;;;;;752627;186;613807;-86
2022/07/19 10:21:01;;;;;;;4.40;2.20;;;;;;;;;;750630;186;625188;-85
2022/07/19 10:23:26;;;;;;;3.80;1.77;;;;;;;;;;753535;186;614451;-86
2022/07/19 10:25:52;;;;;;;3.53;1.97;;;;;;;;;;749440;186;994446;-85
2022/07/19 10:28:23;;;;;;;4.27;2.30;;;;;;;;;;751405;186;671497;-84
2022/07/19 10:30:49;;;;;;;5.03;2.43;;;;;;;;;;745115;186;1675821;-87
2022/07/19 10:33:19;;;;;;;3.80;2.70;;;;;;;;;;753146;186;1034579;-85
2022/07/19 10:35:45;;;;;;;4.87;2.47;;;;;;;;;;750673;186;628440;-88
2022/07/19 10:38:11;;;;;;;7.90;3.90;;;;;;;;;;747769;186;648591;-86
2022/07/19 10:40:37;;;;;;;7.57;2.40;;;;;;;;;;747328;186;636943;-85
2022/07/19 10:43:05;;;;;;;3.17;1.90;;;;;;;;;;754504;184;628617;-85
2022/07/19 10:45:30;;;;;;;3.93;1.87;;;;;;;;;;750840;186;625461;-85
2022/07/19 10:48:02;;;;;;;4.90;3.60;;;;;;;;;;749144;186;625458;-85
2022/07/19 10:50:46;;;;;;;3.70;2.07;;;;;;;;;;754348;186;644585;-84
2022/07/19 10:53:12;;;;;;;4.50;2.00;;;;;;;;;;752458;186;628230;-86
2022/07/19 10:55:38;;;;;;;11.17;2.73;;;;;;;;;;741243;190;632276;-86
2022/07/19 10:58:08;;;;;;;4.37;1.93;;;;;;;;;;751179;187;656364;-87
2022/07/19 11:00:41;;;;;;;3.97;2.20;;;;;;;;;;748260;187;669329;-85
2022/07/19 11:03:13;;;;;;;5.30;2.13;;;;;;;;;;748069;186;839661;-85
2022/07/19 11:05:38;;;;;;;10.00;2.47;;;;;;;;;;752932;187;643554;-86
2022/07/19 11:08:04;;;;;;;7.90;2.13;;;;;;;;;;746610;187;656341;-84
2022/07/19 11:10:30;;;;;;;5.47;2.20;;;;;;;;;;748408;186;749725;-84
2022/07/19 11:12:56;;;;;;;5.70;2.07;;;;;;;;;;755601;184;623121;-84
2022/07/19 11:15:22;;;;;;;2.93;1.80;;;;;;;;;;751741;186;621328;-84
2022/07/19 11:17:50;;;;;;;4.57;2.50;;;;;;;;;;751714;185;615269;-86
2022/07/19 11:20:18;;;;;;;3.47;2.27;;;;;;;;;;752801;186;623250;-85
2022/07/19 11:22:41;;;;;;;4.40;1.93;;;;;;;;;;746148;187;675213;-84
2022/07/19 11:25:07;;;;;;;4.90;2.23;;;;;;;;;;751210;186;631991;-85
2022/07/19 11:27:33;;;;;;;5.23;1.90;;;;;;;;;;751582;186;614842;-87
2022/07/19 11:29:59;;;;;;;5.23;1.90;;;;;;;;;;754180;186;680286;-85
2022/07/19 11:32:26;;;;;;;4.20;1.97;;;;;;;;;;750395;186;683012;-85
2022/07/19 11:34:57;;;;;;;5.67;2.17;;;;;;;;;;747559;186;641420;-84
2022/07/19 11:37:23;;;;;;;3.20;1.80;;;;;;;;;;749507;183;633843;-88
2022/07/19 11:39:49;;;;;;;4.63;2.50;;;;;;;;;;759193;186;750061;-84
2022/07/19 11:42:14;;;;;;;8.33;2.37;;;;;;;;;;750245;184;643550;-85
2022/07/19 11:44:40;;;;;;;3.57;2.10;;;;;;;;;;749660;186;634093;-86
2022/07/19 11:47:06;;;;;;;3.70;1.73;;;;;;;;;;755446;186;636073;-86
2022/07/19 11:49:38;;;;;;;3.20;1.80;;;;;;;;;;751287;186;644406;-84
2022/07/19 11:52:04;;;;;;;7.70;2.43;;;;;;;;;;750407;184;631509;-86
2022/07/19 11:54:30;;;;;;;3.63;2.13;;;;;;;;;;749604;186;805580;-86
2022/07/19 11:56:56;;;;;;;7.70;2.23;;;;;;;;;;747756;187;633109;-87
2022/07/19 11:59:22;;;;;;;4.60;1.83;;;;;;;;;;751409;186;640155;-85
2022/07/19 12:01:47;;;;;;;4.82;1.92;;;;;;;;;;749564;186;658317;-85
2022/07/19 12:04:15;;;;;;;5.37;2.10;;;;;;;;;;753872;186;632525;-86
2022/07/19 12:06:41;;;;;;;4.10;2.33;;;;;;;;;;746917;186;645729;-84
2022/07/19 12:09:08;;;;;;;4.23;1.73;;;;;;;;;;750016;186;632245;-85
2022/07/19 12:11:38;;;;;;;3.50;2.40;;;;;;;;;;752937;186;670789;-85
2022/07/19 12:14:04;;;;;;;3.63;1.97;;;;;;;;;;756423;187;646394;-85
2022/07/19 12:16:30;;;;;;;5.20;2.00;;;;;;;;;;747850;186;628911;-86
2022/07/19 12:18:56;;;;;;;8.77;2.80;;;;;;;;;;746442;186;713779;-86
2022/07/19 12:21:22;;;;;;;3.57;1.90;;;;;;;;;;754450;186;669886;-86
2022/07/19 12:23:53;;;;;;;3.43;2.37;;;;;;;;;;748414;186;712772;-84
2022/07/19 12:26:19;;;;;;;5.00;2.10;;;;;;;;;;752798;185;653246;-86
2022/07/19 12:28:45;;;;;;;8.90;2.23;;;;;;;;;;750557;186;643537;-85
2022/07/19 12:31:11;;;;;;;6.70;2.63;;;;;;;;;;745378;187;666060;-87
2022/07/19 12:33:40;;;;;;;3.73;2.10;;;;;;;;;;752828;186;633560;-87
2022/07/19 12:36:03;;;;;;;3.67;2.33;;;;;;;;;;750573;186;649281;-87
2022/07/19 12:38:31;;;;;;;6.80;2.30;;;;;;;;;;752736;184;670081;-85
2022/07/19 12:41:05;;;;;;;3.50;2.07;;;;;;;;;;746157;186;747965;-87
2022/07/19 12:43:31;;;;;;;4.77;1.87;;;;;;;;;;751882;186;616466;-86
2022/07/19 12:45:57;;;;;;;3.73;2.13;;;;;;;;;;745742;186;662232;-86
2022/07/19 12:48:23;;;;;;;7.57;2.00;;;;;;;;;;753299;186;629532;-85
2022/07/19 12:50:49;;;;;;;3.93;2.20;;;;;;;;;;751424;186;625440;-86
2022/07/19 12:53:15;;;;;;;7.57;3.10;;;;;;;;;;749911;186;649062;-88
2022/07/19 12:55:43;;;;;;;3.87;1.97;;;;;;;;;;755244;186;659883;-84
2022/07/19 12:58:06;;;;;;;5.50;2.50;;;;;;;;;;750649;186;637265;-87
2022/07/19 13:00:32;;;;;;;4.60;2.33;;;;;;;;;;752757;186;619602;-86
2022/07/19 13:02:58;;;;;;;3.87;1.80;;;;;;;;;;751131;186;623550;-87
2022/07/19 13:05:24;;;;;;;4.60;2.40;;;;;;;;;;751183;187;633347;-87
2022/07/19 13:07:50;;;;;;;5.87;2.00;;;;;;;;;;748584;186;639350;-87
2022/07/19 13:10:16;;;;;;;4.17;1.80;;;;;;;;;;755484;183;701874;-85
2022/07/19 13:12:42;;;;;;;3.03;2.13;;;;;;;;;;757053;184;665431;-85
2022/07/19 13:15:08;;;;;;;6.43;2.83;;;;;;;;;;750173;186;686089;-86
2022/07/19 13:17:34;;;;;;;3.60;2.13;;;;;;;;;;750396;184;670471;-85
2022/07/19 13:20:00;;;;;;;4.20;2.07;;;;;;;;;;753101;186;644472;-85
2022/07/19 13:22:26;;;;;;;5.43;1.80;;;;;;;;;;750815;183;667677;-86
2022/07/19 13:24:52;;;;;;;7.60;2.17;;;;;;;;;;749095;187;654574;-86
2022/07/19 13:27:18;;;;;;;5.90;2.23;;;;;;;;;;752175;186;645084;-86
2022/07/19 13:29:43;;;;;;;4.13;1.87;;;;;;;;;;749355;186;679390;-86
2022/07/19 13:32:11;;;;;;;5.23;2.37;;;;;;;;;;749206;183;643346;-87
2022/07/19 13:34:36;;;;;;;4.93;2.10;;;;;;;;;;747291;184;1063486;-85
2022/07/19 13:37:02;;;;;;;5.10;2.20;;;;;;;;;;754798;186;633622;-87
2022/07/19 13:39:28;;;;;;;7.50;2.53;;;;;;;;;;751293;186;681500;-87
2022/07/19 13:41:54;;;;;;;4.20;2.27;;;;;;;;;;750525;183;666000;-84
2022/07/19 13:44:20;;;;;;;6.07;2.30;;;;;;;;;;753515;186;759717;-85
2022/07/19 13:46:45;;;;;;;4.20;2.30;;;;;;;;;;750411;184;634927;-85
2022/07/19 13:49:11;;;;;;;7.50;2.40;;;;;;;;;;750823;186;631696;-86
2022/07/19 13:51:37;;;;;;;7.33;2.50;;;;;;;;;;753234;184;697171;-85
2022/07/19 13:54:03;;;;;;;5.97;2.37;;;;;;;;;;749654;184;626189;-86
2022/07/19 13:56:29;;;;;;;4.60;2.53;;;;;;;;;;749393;186;656054;-86
2022/07/19 13:58:55;;;;;;;3.53;2.07;;;;;;;;;;749175;186;663846;-87
2022/07/19 14:01:21;;;;;;;4.20;2.70;;;;;;;;;;755550;187;652650;-86
2022/07/19 14:03:47;;;;;;;5.03;2.23;;;;;;;;;;749366;186;622800;-85
2022/07/19 14:06:13;;;;;;;5.67;3.07;;;;;;;;;;750483;186;634128;-86
2022/07/19 14:08:39;;;;;;;3.83;2.57;;;;;;;;;;752456;186;675401;-85
2022/07/19 14:11:05;;;;;;;3.40;2.30;;;;;;;;;;748442;187;709777;-85
2022/07/19 14:13:31;;;;;;;7.40;3.83;;;;;;;;;;749892;186;762374;-83
2022/07/19 14:15:57;;;;;;;3.70;2.10;;;;;;;;;;754538;186;637297;-86
2022/07/19 14:18:23;;;;;;;5.87;2.63;;;;;;;;;;748563;186;632125;-86
2022/07/19 14:20:48;;;;;;;6.67;2.50;;;;;;;;;;749320;186;631896;-86
2022/07/19 14:23:14;;;;;;;6.73;2.43;;;;;;;;;;750390;183;634492;-86
2022/07/19 14:25:40;;;;;;;3.20;2.20;;;;;;;;;;757127;187;626843;-86
2022/07/19 14:28:06;;;;;;;58.03;4.00;;;;;;;;;;748939;186;635872;-86
2022/07/19 14:30:32;;;;;;;4.20;2.63;;;;;;;;;;750961;186;627527;-86
2022/07/19 14:32:58;;;;;;;6.60;2.40;;;;;;;;;;755537;186;643892;-87
2022/07/19 14:35:24;;;;;;;3.60;2.27;;;;;;;;;;748818;186;632720;-87
2022/07/19 14:37:50;;;;;;;9.10;2.57;;;;;;;;;;750596;186;726633;-87
2022/07/19 14:40:15;;;;;;;4.60;2.20;;;;;;;;;;752090;186;643635;-84
2022/07/19 14:42:41;;;;;;;4.23;2.30;;;;;;;;;;748126;186;629014;-88
2022/07/19 14:45:07;;;;;;;5.67;3.40;;;;;;;;;;749988;186;739397;-86
2022/07/19 14:47:33;;;;;;;5.27;2.33;;;;;;;;;;750431;184;645739;-87
2022/07/19 14:49:59;;;;;;;6.60;2.50;;;;;;;;;;758500;186;627065;-88
2022/07/19 14:52:25;;;;;;;7.40;2.77;;;;;;;;;;750931;184;665775;-88
2022/07/19 14:54:51;;;;;;;5.10;2.43;;;;;;;;;;750972;186;767056;-88
2022/07/19 14:57:17;;;;;;;5.93;2.80;;;;;;;;;;754305;184;720559;-88
2022/07/19 14:59:43;;;;;;;8.70;2.80;;;;;;;;;;752148;186;655509;-88
2022/07/19 15:02:09;;;;;;;4.90;2.57;;;;;;;;;;751239;186;627270;-87
2022/07/19 15:04:34;;;;;;;7.43;2.73;;;;;;;;;;754951;186;619318;-87
2022/07/19 15:07:00;;;;;;;7.80;3.23;;;;;;;;;;749213;186;649252;-87
2022/07/19 15:09:26;;;;;;;7.77;2.20;;;;;;;;;;747807;186;722084;-86
2022/07/19 15:11:52;;;;;;;7.10;2.93;;;;;;;;;;757489;179;641918;-62
2022/07/19 15:14:18;;;;;;;4.13;2.47;;;;;;;;;;768094;182;702282;-62
2022/07/19 15:16:44;;;;;;;6.57;2.70;;;;;;;;;;764394;182;627222;-64
2022/07/19 15:19:10;;;;;;;5.63;2.90;;;;;;;;;;762930;182;804594;-63
2022/07/19 15:21:37;;;;;;;5.20;3.43;;;;;;;;;;766657;182;627667;-62
2022/07/19 15:24:01;;;;;;;9.40;2.57;;;;;;;;;;767994;182;637152;-61
2022/07/19 15:26:27;;;;;;;6.53;2.73;;;;;;;;;;766219;182;646032;-63
2022/07/19 15:28:53;;;;;;;5.50;2.77;;;;;;;;;;764834;183;919495;-62
2022/07/19 15:31:19;;;;;;;5.63;2.90;;;;;;;;;;759482;182;898384;-64
2022/07/19 15:33:45;;;;;;;5.47;3.53;;;;;;;;;;757603;182;816101;-64
2022/07/19 15:36:10;;;;;;;6.00;2.70;;;;;;;;;;766586;182;638047;-64
2022/07/19 15:38:36;;;;;;;9.30;3.50;;;;;;;;;;763588;182;619437;-64
2022/07/19 15:41:02;;;;;;;7.13;2.50;;;;;;;;;;767980;182;619123;-64
2022/07/19 15:43:28;;;;;;;7.23;2.30;;;;;;;;;;766204;183;622046;-64
2022/07/19 15:45:54;;;;;;;4.80;2.90;;;;;;;;;;768345;182;621427;-64
2022/07/19 15:48:20;;;;;;;11.10;2.87;;;;;;;;;;763636;183;631786;-65
2022/07/19 15:50:46;;;;;;;5.80;2.53;;;;;;;;;;764143;183;636209;-63
2022/07/19 15:53:11;;;;;;;6.17;2.60;;;;;;;;;;761684;183;634814;-63
2022/07/19 15:55:37;;;;;;;3.70;2.60;;;;;;;;;;763949;183;626778;-65
2022/07/19 15:58:03;;;;;;;4.37;2.83;;;;;;;;;;763068;182;621377;-62
2022/07/19 16:00:30;;;;;;;4.70;2.87;;;;;;;;;;769978;182;634124;-67
2022/07/19 16:02:55;;;;;;;6.27;2.57;;;;;;;;;;767033;182;615131;-69
2022/07/19 16:05:21;;;;;;;3.73;2.67;;;;;;;;;;768621;182;622533;-70
2022/07/19 16:07:47;;;;;;;4.63;2.80;;;;;;;;;;764411;182;630053;-68
2022/07/19 16:10:12;;;;;;;4.63;2.70;;;;;;;;;;767040;182;644408;-71
2022/07/19 16:12:38;;;;;;;7.83;2.53;;;;;;;;;;765477;182;633506;-72
2022/07/19 16:15:04;;;;;;;4.50;2.80;;;;;;;;;;766387;182;629132;-70
2022/07/19 16:17:31;;;;;;;4.97;3.10;;;;;;;;;;770691;182;618914;-70
2022/07/19 16:19:56;;;;;;;6.67;3.17;;;;;;;;;;767004;182;629423;-69
2022/07/19 16:22:22;;;;;;;5.37;2.92;;;;;;;;;;762024;182;804142;-67
2022/07/19 16:24:48;;;;;;;4.73;2.73;;;;;;;;;;767910;183;661550;-67
2022/07/19 16:27:14;;;;;;;6.33;2.93;;;;;;;;;;762693;183;864486;-68
2022/07/19 16:29:41;;;;;;;4.97;2.67;;;;;;;;;;766966;182;759302;-68
2022/07/19 16:32:06;;;;;;;7.43;2.73;;;;;;;;;;768137;183;614467;-69
2022/07/19 16:34:32;;;;;;;4.27;2.80;;;;;;;;;;764105;182;635693;-68
2022/07/19 16:36:57;;;;;;;5.13;2.70;;;;;;;;;;763232;182;681690;-68
2022/07/19 16:39:23;;;;;;;6.90;2.70;;;;;;;;;;764612;182;633611;-69
2022/07/19 16:41:49;;;;;;;9.10;3.00;;;;;;;;;;769833;182;634666;-66
2022/07/19 16:44:15;;;;;;;4.73;3.07;;;;;;;;;;767685;183;624963;-70
2022/07/19 16:46:41;;;;;;;8.80;3.80;;;;;;;;;;761981;182;683764;-65
2022/07/19 16:49:07;;;;;;;3.20;2.40;;;;;;;;;;769564;182;634805;-69
2022/07/19 16:51:32;;;;;;;5.63;2.90;;;;;;;;;;766561;182;628864;-68
2022/07/19 16:53:58;;;;;;;5.30;2.97;;;;;;;;;;765349;182;639859;-69
2022/07/19 16:56:24;;;;;;;8.23;3.20;;;;;;;;;;767085;183;630793;-66
2022/07/19 16:58:51;;;;;;;5.53;2.73;;;;;;;;;;762977;182;641472;-69
2022/07/19 17:01:17;;;;;;;4.67;2.90;;;;;;;;;;763886;182;623297;-69
2022/07/19 17:03:43;;;;;;;4.83;2.93;;;;;;;;;;763787;182;784529;-65
2022/07/19 17:06:09;;;;;;;6.80;2.77;;;;;;;;;;767769;179;640454;-67
2022/07/19 17:08:35;;;;;;;7.47;3.23;;;;;;;;;;766083;182;765149;-66
2022/07/19 17:11:01;;;;;;;5.37;3.10;;;;;;;;;;767788;182;642133;-62
2022/07/19 17:13:26;;;;;;;4.50;2.80;;;;;;;;;;770663;182;653680;-62
2022/07/19 17:15:52;;;;;;;4.50;2.83;;;;;;;;;;764909;182;671783;-61
2022/07/19 17:18:18;;;;;;;7.73;2.50;;;;;;;;;;766645;182;625735;-67
2022/07/19 17:20:44;;;;;;;8.20;3.30;;;;;;;;;;768422;182;627563;-65
2022/07/19 17:23:10;;;;;;;11.63;2.83;;;;;;;;;;764590;182;635730;-67
2022/07/19 17:25:36;;;;;;;7.83;4.07;;;;;;;;;;765312;182;635423;-65
2022/07/19 17:28:02;;;;;;;7.13;3.33;;;;;;;;;;763044;182;629848;-61
2022/07/19 17:30:28;;;;;;;11.23;4.27;;;;;;;;;;765704;183;620827;-61
2022/07/19 17:32:53;;;;;;;4.70;2.80;;;;;;;;;;767155;182;626758;-65
2022/07/19 17:35:19;;;;;;;5.73;3.10;;;;;;;;;;765160;183;690684;-61
2022/07/19 17:37:45;;;;;;;7.40;2.80;;;;;;;;;;771087;182;616680;-60
2022/07/19 17:40:11;;;;;;;4.07;2.80;;;;;;;;;;764113;182;627078;-60
2022/07/19 17:42:37;;;;;;;7.67;2.90;;;;;;;;;;766087;182;626459;-60
2022/07/19 17:45:03;;;;;;;5.80;3.30;;;;;;;;;;769926;182;630936;-60
2022/07/19 17:47:29;;;;;;;11.67;3.50;;;;;;;;;;763899;183;624430;-66
2022/07/19 17:49:55;;;;;;;7.67;2.67;;;;;;;;;;760089;183;625436;-66
2022/07/19 17:52:21;;;;;;;7.93;2.80;;;;;;;;;;761027;183;621402;-61
2022/07/19 17:54:46;;;;;;;8.63;2.70;;;;;;;;;;765685;181;630232;-60
2022/07/19 17:57:12;;;;;;;6.60;2.70;;;;;;;;;;764531;182;630439;-66
2022/07/19 17:59:38;;;;;;;5.17;3.33;;;;;;;;;;766831;182;625738;-60
2022/07/19 18:02:04;;;;;;;3.53;2.40;;;;;;;;;;766054;182;641930;-60
2022/07/19 18:04:30;;;;;;;6.20;2.90;;;;;;;;;;765870;183;630665;-67
2022/07/19 18:06:56;;;;;;;8.43;3.60;;;;;;;;;;765288;183;616781;-60
2022/07/19 18:09:22;;;;;;;13.27;3.40;;;;;;;;;;767428;182;624339;-64
2022/07/19 18:11:47;;;;;;;6.20;3.20;;;;;;;;;;765515;182;624551;-61
2022/07/19 18:14:14;;;;;;;5.10;2.97;;;;;;;;;;766094;182;621783;-65
2022/07/19 18:16:39;;;;;;;6.83;3.30;;;;;;;;;;768409;183;628130;-65
2022/07/19 18:19:05;;;;;;;8.20;3.97;;;;;;;;;;765401;183;616141;-65
2022/07/19 18:21:31;;;;;;;7.83;3.00;;;;;;;;;;767450;181;609321;-59
2022/07/19 18:23:57;;;;;;;7.07;3.53;;;;;;;;;;766973;182;631578;-65
2022/07/19 18:26:23;;;;;;;7.83;2.73;;;;;;;;;;770927;182;616989;-59
2022/07/19 18:28:48;;;;;;;6.17;4.20;;;;;;;;;;766188;182;623764;-64
2022/07/19 18:31:14;;;;;;;16.47;3.90;;;;;;;;;;764753;182;635907;-64
2022/07/19 18:33:40;;;;;;;14.60;4.83;;;;;;;;;;769322;182;639245;-59
2022/07/19 18:36:06;;;;;;;24.60;4.93;;;;;;;;;;766321;182;616968;-61
2022/07/19 18:38:32;;;;;;;10.70;4.70;;;;;;;;;;767452;182;624458;-65
2022/07/19 18:40:58;;;;;;;22.77;7.30;;;;;;;;;;769271;182;617894;-59
2022/07/19 18:43:24;;;;;;;19.97;4.00;;;;;;;;;;763641;182;638655;-59
2022/07/19 18:45:49;;;;;;;24.83;5.63;;;;;;;;;;765071;182;625728;-60
2022/07/19 18:48:28;;;;;;;16.30;5.47;;;;;;;;;;762087;182;641894;-63
2022/07/19 18:50:41;;;;;;;16.83;4.67;;;;;;;;;;765147;182;919164;-63
2022/07/19 18:53:07;;;;;;;19.47;4.70;;;;;;;;;;761986;182;919195;-59
2022/07/19 18:55:33;;;;;;;31.90;6.50;;;;;;;;;;765415;182;626530;-63
2022/07/19 18:57:59;;;;;;;30.60;6.43;;;;;;;;;;767883;182;635950;-63
2022/07/19 19:00:25;;;;;;;37.30;6.87;;;;;;;;;;765743;182;627322;-63
2022/07/19 19:02:51;;;;;;;27.03;4.97;;;;;;;;;;765528;183;626895;-63
2022/07/19 19:05:17;;;;;;;36.00;6.60;;;;;;;;;;770383;182;619959;-58
2022/07/19 19:07:43;;;;;;;56.73;7.90;;;;;;;;;;762852;182;626675;-60
2022/07/19 19:10:09;;;;;;;26.57;6.10;;;;;;;;;;763611;182;627069;-59
2022/07/19 19:12:35;;;;;;;30.30;5.90;;;;;;;;;;760181;182;622775;-65
2022/07/19 19:15:01;;;;;;;30.87;6.67;;;;;;;;;;768056;182;633270;-59
2022/07/19 19:17:27;;;;;;;33.47;6.90;;;;;;;;;;764097;182;628538;-59
2022/07/19 19:19:52;;;;;;;42.13;9.67;;;;;;;;;;766270;182;647488;-63
2022/07/19 19:22:18;;;;;;;49.10;7.57;;;;;;;;;;765640;182;634876;-59
2022/07/19 19:24:45;;;;;;;36.33;7.23;;;;;;;;;;764621;182;615914;-63
2022/07/19 19:27:10;;;;;;;36.57;6.67;;;;;;;;;;765035;182;641226;-59
2022/07/19 19:29:36;;;;;;;12.30;4.50;;;;;;;;;;767834;182;616874;-59
2022/07/19 19:32:02;;;;;;;10.93;4.17;;;;;;;;;;766383;181;618511;-63
2022/07/19 19:34:27;;;;;;;28.60;5.37;;;;;;;;;;766418;182;623697;-59
2022/07/19 19:36:53;;;;;;;21.07;5.37;;;;;;;;;;767126;181;625891;-63
2022/07/19 19:39:19;;;;;;;12.40;4.00;;;;;;;;;;762310;182;617284;-65
2022/07/19 19:41:45;;;;;;;10.40;4.20;;;;;;;;;;766810;182;633268;-59
2022/07/19 19:44:11;;;;;;;9.27;3.97;;;;;;;;;;765587;182;634782;-59
2022/07/19 19:46:37;;;;;;;17.17;5.20;;;;;;;;;;768497;182;623848;-68
2022/07/19 19:49:02;;;;;;;10.30;4.03;;;;;;;;;;765199;182;629748;-64
2022/07/19 19:51:28;;;;;;;17.83;4.50;;;;;;;;;;763367;182;625517;-59
2022/07/19 19:53:54;;;;;;;17.00;5.27;;;;;;;;;;768001;182;626478;-59
2022/07/19 19:56:20;;;;;;;12.03;4.03;;;;;;;;;;765507;182;753719;-59
2022/07/19 19:58:46;;;;;;;10.10;3.73;;;;;;;;;;764750;182;617360;-65
2022/07/19 20:01:12;;;;;;;6.90;4.27;;;;;;;;;;768873;182;629115;-65
2022/07/19 20:03:38;;;;;;;10.10;4.17;;;;;;;;;;765971;182;674292;-59
2022/07/19 20:06:03;;;;;;;10.27;4.13;;;;;;;;;;764271;182;627533;-65
2022/07/19 20:08:29;;;;;;;15.57;4.63;;;;;;;;;;764083;183;640193;-59
2022/07/19 20:10:55;;;;;;;7.27;4.20;;;;;;;;;;765808;182;616998;-63
2022/07/19 20:13:21;;;;;;;7.50;4.47;;;;;;;;;;764533;182;627993;-63
2022/07/19 20:15:47;;;;;;;7.87;3.80;;;;;;;;;;760496;182;916638;-65
2022/07/19 20:18:13;;;;;;;7.23;3.73;;;;;;;;;;766085;182;920878;-63
2022/07/19 20:20:38;;;;;;;8.87;3.60;;;;;;;;;;760612;182;919191;-64
2022/07/19 20:23:04;;;;;;;11.23;4.93;;;;;;;;;;760895;183;919436;-64
2022/07/19 20:25:30;;;;;;;9.50;4.73;;;;;;;;;;765127;182;919027;-59
2022/07/19 20:27:56;;;;;;;11.67;4.90;;;;;;;;;;762448;182;914766;-59
2022/07/19 20:30:22;;;;;;;8.30;4.07;;;;;;;;;;759902;182;918776;-59
2022/07/19 20:32:48;;;;;;;23.10;4.37;;;;;;;;;;758107;182;919253;-59
2022/07/19 20:35:13;;;;;;;10.83;3.57;;;;;;;;;;755415;186;913575;-62
2022/07/19 20:37:39;;;;;;;7.90;3.77;;;;;;;;;;760943;182;918693;-63
2022/07/19 20:40:05;;;;;;;6.70;3.70;;;;;;;;;;757238;182;918046;-63
2022/07/19 20:42:31;;;;;;;6.50;4.23;;;;;;;;;;766283;182;918877;-60
2022/07/19 20:44:57;;;;;;;6.33;3.20;;;;;;;;;;764172;182;911292;-59
2022/07/19 20:47:23;;;;;;;12.57;4.73;;;;;;;;;;760147;182;919964;-60
2022/07/19 20:49:49;;;;;;;8.93;4.90;;;;;;;;;;765304;182;920731;-63
2022/07/19 20:52:15;;;;;;;9.00;4.30;;;;;;;;;;761742;182;876285;-63
2022/07/19 20:54:40;;;;;;;10.40;4.43;;;;;;;;;;759534;182;919260;-64
2022/07/19 20:57:06;;;;;;;11.73;4.37;;;;;;;;;;758538;182;920287;-63
2022/07/19 20:59:32;;;;;;;11.63;4.70;;;;;;;;;;766160;179;917813;-59
2022/07/19 21:01:58;;;;;;;8.03;4.60;;;;;;;;;;760012;183;909938;-64
2022/07/19 21:04:24;;;;;;;14.93;4.28;;;;;;;;;;760104;183;918137;-64
2022/07/19 21:06:50;;;;;;;7.07;4.10;;;;;;;;;;765839;182;920732;-59
2022/07/19 21:09:16;;;;;;;7.53;4.03;;;;;;;;;;763401;182;891897;-60
2022/07/19 21:11:41;;;;;;;8.70;4.30;;;;;;;;;;759694;182;925677;-59
2022/07/19 21:14:07;;;;;;;12.97;4.90;;;;;;;;;;766424;183;919502;-63
2022/07/19 21:16:33;;;;;;;14.93;5.20;;;;;;;;;;761279;182;918872;-62
2022/07/19 21:18:59;;;;;;;11.77;5.13;;;;;;;;;;759856;182;935707;-62
2022/07/19 21:21:25;;;;;;;9.17;4.60;;;;;;;;;;763577;183;924465;-61
2022/07/19 21:23:51;;;;;;;8.13;3.63;;;;;;;;;;760528;182;919664;-65
2022/07/19 21:26:17;;;;;;;7.63;3.80;;;;;;;;;;759461;182;916533;-61
2022/07/19 21:28:42;;;;;;;6.93;4.10;;;;;;;;;;759254;183;921836;-64
2022/07/19 21:31:08;;;;;;;8.47;3.93;;;;;;;;;;763491;182;916372;-61
2022/07/19 21:33:34;;;;;;;8.90;3.77;;;;;;;;;;757332;182;923180;-59
2022/07/19 21:36:00;;;;;;;10.43;4.40;;;;;;;;;;759902;182;920593;-64
2022/07/19 21:38:26;;;;;;;10.45;4.57;;;;;;;;;;767393;182;816018;-60
2022/07/19 21:40:52;;;;;;;10.30;4.87;;;;;;;;;;763031;182;919627;-59
2022/07/19 21:43:17;;;;;;;9.47;4.47;;;;;;;;;;761621;182;920874;-64
2022/07/19 21:45:43;;;;;;;4.97;3.67;;;;;;;;;;766187;182;1020827;-64
2022/07/19 21:48:09;;;;;;;6.83;3.40;;;;;;;;;;757925;182;922698;-60
2022/07/19 21:50:35;;;;;;;7.18;4.70;;;;;;;;;;761702;182;920417;-60
2022/07/19 21:53:01;;;;;;;10.10;4.50;;;;;;;;;;761641;182;921487;-63
2022/07/19 21:55:27;;;;;;;6.93;4.70;;;;;;;;;;759105;185;817884;-64
2022/07/19 21:57:52;;;;;;;8.80;4.17;;;;;;;;;;766033;182;916783;-59
2022/07/19 22:00:19;;;;;;;10.43;4.20;;;;;;;;;;763529;182;919760;-64
2022/07/19 22:02:45;;;;;;;6.87;4.60;;;;;;;;;;768108;182;918319;-59
2022/07/19 22:05:10;;;;;;;7.60;4.13;;;;;;;;;;765968;182;817022;-59
2022/07/19 22:07:36;;;;;;;10.37;4.70;;;;;;;;;;761118;182;919574;-64
2022/07/19 22:10:02;;;;;;;10.43;4.90;;;;;;;;;;766732;182;923121;-59
2022/07/19 22:12:28;;;;;;;7.17;4.50;;;;;;;;;;759791;182;915076;-65
2022/07/19 22:14:55;;;;;;;5.60;4.10;;;;;;;;;;761484;182;922334;-59
2022/07/19 22:17:20;;;;;;;11.90;4.20;;;;;;;;;;754628;182;920303;-65
2022/07/19 22:19:46;;;;;;;7.28;4.25;;;;;;;;;;757743;184;921429;-66
2022/07/19 22:22:11;;;;;;;6.03;3.97;;;;;;;;;;758810;183;923270;-60
2022/07/19 22:24:37;;;;;;;8.30;4.00;;;;;;;;;;753429;183;818650;-60
2022/07/19 22:27:03;;;;;;;5.13;3.90;;;;;;;;;;771131;183;630918;-65
2022/07/19 22:29:29;;;;;;;8.73;4.60;;;;;;;;;;766803;182;624328;-65
2022/07/19 22:31:55;;;;;;;5.70;4.35;;;;;;;;;;760665;183;624910;-64
2022/07/19 22:34:21;;;;;;;6.27;4.50;;;;;;;;;;770969;182;630559;-60
2022/07/19 22:36:46;;;;;;;5.23;3.50;;;;;;;;;;763762;183;622851;-66
2022/07/19 22:39:12;;;;;;;5.90;4.30;;;;;;;;;;761968;183;918380;-60
2022/07/19 22:41:38;;;;;;;6.80;4.90;;;;;;;;;;761402;182;814717;-65
2022/07/19 22:44:04;;;;;;;10.97;4.27;;;;;;;;;;759493;182;939166;-64
2022/07/19 22:46:30;;;;;;;6.33;3.93;;;;;;;;;;759478;182;918710;-64
2022/07/19 22:48:56;;;;;;;8.17;4.40;;;;;;;;;;761883;183;919865;-65
2022/07/19 22:51:21;;;;;;;7.17;4.17;;;;;;;;;;760066;183;915778;-59
2022/07/19 22:53:47;;;;;;;8.33;4.77;;;;;;;;;;758018;183;919583;-65
2022/07/19 22:56:13;;;;;;;9.33;4.17;;;;;;;;;;753349;183;1022330;-65
2022/07/19 22:58:39;;;;;;;8.30;3.70;;;;;;;;;;770181;182;650571;-65
2022/07/19 23:01:05;;;;;;;7.95;4.55;;;;;;;;;;765394;182;910017;-65
2022/07/19 23:03:31;;;;;;;6.43;4.57;;;;;;;;;;762246;183;919720;-59
2022/07/19 23:05:57;;;;;;;9.57;4.67;;;;;;;;;;767860;182;920297;-65
2022/07/19 23:08:22;;;;;;;7.50;4.50;;;;;;;;;;764898;182;818659;-59
2022/07/19 23:10:49;;;;;;;5.27;4.40;;;;;;;;;;765264;182;919632;-60
2022/07/19 23:13:14;;;;;;;5.30;3.87;;;;;;;;;;764511;182;918794;-64
2022/07/19 23:15:40;;;;;;;6.87;4.60;;;;;;;;;;770291;181;817417;-60
2022/07/19 23:18:06;;;;;;;8.80;4.63;;;;;;;;;;767129;182;630044;-64
2022/07/19 23:20:32;;;;;;;13.40;4.07;;;;;;;;;;757614;182;713118;-60
2022/07/19 23:22:57;;;;;;;9.63;4.90;;;;;;;;;;771191;182;629118;-64
2022/07/19 23:25:23;;;;;;;8.27;4.57;;;;;;;;;;759810;182;628816;-64
2022/07/19 23:27:49;;;;;;;14.27;6.00;;;;;;;;;;764782;183;617156;-64
2022/07/19 23:30:15;;;;;;;5.90;4.73;;;;;;;;;;768454;183;918958;-66
2022/07/19 23:32:41;;;;;;;6.33;4.77;;;;;;;;;;759351;182;919181;-64
2022/07/19 23:35:07;;;;;;;8.97;4.37;;;;;;;;;;763943;182;915015;-60